Time;durP1;ratioP1;P1;durP2;ratioP2;P2;SDS_P1;SDS_P2;PMS_P1;PMS_P2;Temp;Humidity;BMP_temperature;BMP_pressure;BME280_temperature;BME280_humidity;BME280_pressure;Samples;Min_cycle;Max_cycle;Signal;HPM_P1;HPM_P2
2024/03/24 00:01:50;;;;;;;11.18;9.77;;;4.20;99.90;;;;;;5053296;28;20205;-63
2024/03/24 00:04:17;;;;;;;12.43;8.70;;;4.20;99.90;;;;;;5053585;28;20650;-62
2024/03/24 00:06:44;;;;;;;10.35;9.32;;;4.10;99.90;;;;;;5053758;28;20193;-62
2024/03/24 00:09:11;;;;;;;9.63;8.63;;;4.10;99.90;;;;;;5053771;28;20214;-62
2024/03/24 00:11:37;;;;;;;10.43;9.43;;;4.10;99.90;;;;;;5053577;28;20211;-62
2024/03/24 00:14:04;;;;;;;12.93;8.83;;;4.10;99.90;;;;;;5053354;28;20219;-62
2024/03/24 00:16:30;;;;;;;14.95;9.00;;;4.10;99.90;;;;;;5053296;28;20227;-61
2024/03/24 00:18:58;;;;;;;11.75;9.50;;;4.10;99.90;;;;;;5053416;28;20285;-62
2024/03/24 00:21:24;;;;;;;10.38;9.30;;;4.10;99.90;;;;;;5054575;28;20622;-62
2024/03/24 00:23:52;;;;;;;10.07;9.10;;;4.10;99.90;;;;;;5054058;28;20281;-63
2024/03/24 00:26:18;;;;;;;10.73;9.07;;;4.10;99.90;;;;;;5054156;28;20441;-62
2024/03/24 00:28:45;;;;;;;12.67;10.10;;;4.10;99.90;;;;;;5056455;28;20205;-60
2024/03/24 00:31:11;;;;;;;11.00;9.90;;;4.10;99.90;;;;;;5058760;28;20197;-62
2024/03/24 00:33:37;;;;;;;13.53;9.93;;;4.10;99.90;;;;;;5057756;28;20235;-62
2024/03/24 00:36:04;;;;;;;10.40;9.35;;;4.10;99.90;;;;;;5058152;28;20696;-63
2024/03/24 00:38:31;;;;;;;11.07;9.95;;;4.20;99.90;;;;;;5058355;28;20204;-63
2024/03/24 00:40:58;;;;;;;11.60;10.45;;;4.20;99.90;;;;;;5057986;28;20221;-62
2024/03/24 00:43:24;;;;;;;12.90;10.60;;;4.20;99.90;;;;;;5058418;28;20304;-61
2024/03/24 00:45:50;;;;;;;13.25;10.32;;;4.10;99.90;;;;;;5057585;28;20202;-62
2024/03/24 00:48:17;;;;;;;11.10;9.50;;;4.10;99.90;;;;;;5057059;28;20209;-62
2024/03/24 00:50:43;;;;;;;11.02;10.10;;;4.10;99.90;;;;;;5057040;28;20209;-62
2024/03/24 00:53:10;;;;;;;10.87;9.50;;;4.10;99.90;;;;;;5057140;28;20198;-62
2024/03/24 00:55:35;;;;;;;10.55;9.45;;;4.10;99.90;;;;;;5056929;28;20499;-61
2024/03/24 00:58:04;;;;;;;11.83;10.20;;;4.10;99.90;;;;;;5057308;28;20198;-62
2024/03/24 01:00:30;;;;;;;10.20;9.20;;;4.00;99.90;;;;;;5058888;28;20225;-64
2024/03/24 01:02:56;;;;;;;15.80;9.17;;;4.00;99.90;;;;;;5059189;28;20264;-64
2024/03/24 01:05:22;;;;;;;10.25;9.27;;;4.00;99.90;;;;;;5057079;28;20461;-61
2024/03/24 01:07:49;;;;;;;11.70;9.10;;;4.00;99.90;;;;;;5059124;28;20198;-63
2024/03/24 01:10:15;;;;;;;13.93;8.57;;;4.00;99.90;;;;;;5059675;28;20518;-62
2024/03/24 01:12:43;;;;;;;10.15;9.15;;;4.00;99.90;;;;;;5058955;28;20206;-62
2024/03/24 01:15:10;;;;;;;13.52;9.18;;;4.00;99.90;;;;;;5058640;28;20225;-62
2024/03/24 01:17:37;;;;;;;12.40;9.23;;;4.00;99.90;;;;;;5057361;28;20252;-62
2024/03/24 01:20:04;;;;;;;12.13;9.30;;;3.90;99.90;;;;;;5056278;28;20521;-62
2024/03/24 01:22:30;;;;;;;12.27;10.23;;;3.90;99.90;;;;;;5056529;28;20202;-62
2024/03/24 01:24:56;;;;;;;12.50;9.50;;;3.90;99.90;;;;;;5056496;28;20233;-63
2024/03/24 01:27:23;;;;;;;10.00;9.00;;;3.90;99.90;;;;;;5057086;28;20284;-62
2024/03/24 01:29:49;;;;;;;15.02;10.27;;;3.90;99.90;;;;;;5057203;28;20202;-62
2024/03/24 01:32:17;;;;;;;14.37;10.40;;;3.90;99.90;;;;;;5058067;28;20221;-61
2024/03/24 01:34:43;;;;;;;12.02;9.88;;;3.90;99.90;;;;;;5056304;28;20471;-62
2024/03/24 01:37:09;;;;;;;12.50;10.20;;;3.90;99.90;;;;;;5056609;28;20222;-62
2024/03/24 01:39:35;;;;;;;12.45;11.05;;;3.90;99.90;;;;;;5055530;28;20209;-62
2024/03/24 01:42:02;;;;;;;12.47;9.30;;;3.80;99.90;;;;;;5055408;28;20200;-62
2024/03/24 01:44:29;;;;;;;11.15;10.05;;;3.80;99.90;;;;;;5055406;28;20712;-62
2024/03/24 01:46:55;;;;;;;13.10;10.15;;;3.80;99.90;;;;;;5055764;28;20216;-62
2024/03/24 01:49:23;;;;;;;13.32;11.00;;;3.80;99.90;;;;;;5055566;28;20288;-61
2024/03/24 01:51:51;;;;;;;14.40;11.55;;;3.80;99.90;;;;;;5055744;28;20206;-61
2024/03/24 01:54:18;;;;;;;15.23;10.98;;;3.80;99.90;;;;;;5055940;28;20313;-61
2024/03/24 01:56:45;;;;;;;14.23;9.93;;;3.80;99.90;;;;;;5055644;28;20221;-61
2024/03/24 01:59:11;;;;;;;14.93;10.48;;;3.80;99.90;;;;;;5055416;28;20677;-61
2024/03/24 02:01:38;;;;;;;12.80;9.73;;;3.80;99.90;;;;;;5055740;28;20205;-61
2024/03/24 02:04:07;;;;;;;13.88;10.30;;;3.80;99.90;;;;;;5055426;28;20739;-62
2024/03/24 02:06:36;;;;;;;12.25;10.30;;;3.80;99.90;;;;;;5055548;28;20196;-61
2024/03/24 02:09:02;;;;;;;13.90;10.73;;;3.80;99.90;;;;;;5055351;28;20234;-62
2024/03/24 02:11:30;;;;;;;12.67;10.57;;;3.80;99.90;;;;;;5055288;28;20647;-62
2024/03/24 02:13:56;;;;;;;12.85;10.70;;;3.80;99.90;;;;;;5057807;28;20465;-63
2024/03/24 02:16:23;;;;;;;14.05;11.50;;;3.80;99.90;;;;;;5056775;28;20295;-61
2024/03/24 02:18:49;;;;;;;17.05;11.90;;;3.90;99.90;;;;;;5055069;28;20202;-62
2024/03/24 02:21:15;;;;;;;14.87;11.57;;;3.90;99.90;;;;;;5056079;28;20208;-61
2024/03/24 02:23:43;;;;;;;13.77;10.40;;;4.00;99.90;;;;;;5055614;28;20483;-62
2024/03/24 02:26:09;;;;;;;12.75;10.00;;;4.00;99.90;;;;;;5055592;28;20600;-63
2024/03/24 02:28:35;;;;;;;15.00;12.23;;;4.00;99.90;;;;;;5054867;28;20683;-62
2024/03/24 02:31:02;;;;;;;14.07;10.97;;;4.00;99.90;;;;;;5055536;28;20244;-62
2024/03/24 02:33:28;;;;;;;16.13;11.13;;;4.10;99.90;;;;;;5055414;28;20209;-63
2024/03/24 02:35:55;;;;;;;11.53;10.33;;;4.00;99.90;;;;;;5055651;28;20698;-62
2024/03/24 02:38:21;;;;;;;11.43;10.23;;;4.00;99.90;;;;;;5055484;28;20205;-62
2024/03/24 02:40:50;;;;;;;11.93;10.30;;;4.00;99.90;;;;;;5056374;28;20665;-61
2024/03/24 02:43:16;;;;;;;13.75;10.20;;;4.10;99.90;;;;;;5056535;28;20202;-62
2024/03/24 02:45:43;;;;;;;15.20;10.07;;;4.10;99.90;;;;;;5056682;28;20579;-61
2024/03/24 02:48:09;;;;;;;15.18;9.88;;;4.20;99.90;;;;;;5055123;28;20441;-62
2024/03/24 02:50:36;;;;;;;13.73;10.75;;;4.20;99.90;;;;;;5055348;28;20292;-62
2024/03/24 02:53:04;;;;;;;11.10;9.35;;;4.30;99.90;;;;;;5054077;28;20198;-63
2024/03/24 02:55:30;;;;;;;14.98;9.75;;;4.30;99.90;;;;;;5055091;28;20218;-61
2024/03/24 02:57:58;;;;;;;14.00;10.23;;;4.40;99.90;;;;;;5054716;28;20657;-62
2024/03/24 03:00:24;;;;;;;14.63;9.85;;;4.50;99.90;;;;;;5055391;28;20544;-61
2024/03/24 03:02:50;;;;;;;10.40;8.98;;;4.50;99.90;;;;;;5060663;22;20244;-62
2024/03/24 03:05:17;;;;;;;13.13;9.40;;;4.60;99.90;;;;;;5035921;28;20302;-61
2024/03/24 03:07:42;;;;;;;11.02;9.57;;;4.50;99.90;;;;;;5035186;28;20209;-62
2024/03/24 03:10:09;;;;;;;12.50;8.87;;;4.50;99.90;;;;;;5035024;28;20194;-62
2024/03/24 03:12:35;;;;;;;11.98;9.30;;;4.60;99.90;;;;;;5035475;28;20224;-62
2024/03/24 03:15:05;;;;;;;10.93;8.37;;;4.60;99.90;;;;;;5035187;28;20237;-62
2024/03/24 03:17:30;;;;;;;10.93;8.85;;;4.60;99.90;;;;;;5035375;28;20504;-62
2024/03/24 03:19:59;;;;;;;13.77;9.47;;;4.60;99.90;;;;;;5035389;28;20670;-63
2024/03/24 03:22:25;;;;;;;9.52;8.45;;;4.70;99.90;;;;;;5035069;28;20222;-61
2024/03/24 03:24:52;;;;;;;11.57;8.43;;;4.70;99.90;;;;;;5035055;28;20207;-62
2024/03/24 03:27:17;;;;;;;11.88;9.07;;;4.80;99.90;;;;;;5034990;28;20557;-61
2024/03/24 03:29:44;;;;;;;10.10;8.27;;;4.80;99.90;;;;;;5035416;28;20207;-62
2024/03/24 03:32:11;;;;;;;10.05;7.75;;;4.80;99.90;;;;;;5035354;28;20240;-62
2024/03/24 03:34:38;;;;;;;9.50;8.50;;;4.90;99.90;;;;;;5035182;28;20204;-62
2024/03/24 03:37:04;;;;;;;10.82;8.73;;;4.90;99.90;;;;;;5035148;28;20218;-61
2024/03/24 03:39:31;;;;;;;12.40;8.60;;;4.90;99.90;;;;;;5035346;28;20667;-62
2024/03/24 03:41:59;;;;;;;11.80;8.10;;;5.00;99.90;;;;;;5037335;28;20231;-62
2024/03/24 03:44:25;;;;;;;11.00;8.77;;;5.00;99.90;;;;;;5037403;28;20200;-62
2024/03/24 03:46:51;;;;;;;12.27;8.20;;;5.10;99.90;;;;;;5035790;28;20203;-62
2024/03/24 03:49:19;;;;;;;8.70;7.60;;;5.00;99.90;;;;;;5035457;28;20203;-62
2024/03/24 03:51:46;;;;;;;15.02;7.55;;;5.10;99.90;;;;;;5036012;28;20225;-62
2024/03/24 03:54:14;;;;;;;10.68;8.68;;;5.00;99.90;;;;;;5036191;28;20559;-62
2024/03/24 03:56:40;;;;;;;8.85;7.95;;;5.00;99.90;;;;;;5034478;28;20631;-62
2024/03/24 03:59:07;;;;;;;8.80;7.70;;;4.90;99.90;;;;;;5036280;28;20671;-62
2024/03/24 04:01:33;;;;;;;9.93;7.93;;;4.90;99.90;;;;;;5036185;28;20337;-61
2024/03/24 04:04:00;;;;;;;11.13;7.10;;;4.90;99.90;;;;;;5034218;28;20207;-62
2024/03/24 04:06:27;;;;;;;8.73;7.43;;;4.80;99.90;;;;;;5034077;28;20670;-62
2024/03/24 04:08:54;;;;;;;10.02;7.60;;;4.80;99.90;;;;;;5033642;28;20202;-61
2024/03/24 04:13:25;;;;;;;11.10;7.43;;;4.80;99.90;;;;;;5091768;27;21108;-62
2024/03/24 04:15:51;;;;;;;11.73;7.47;;;4.80;99.90;;;;;;5092126;28;20203;-62
2024/03/24 04:18:17;;;;;;;9.63;8.10;;;4.80;99.90;;;;;;5091760;28;20195;-60
2024/03/24 04:20:43;;;;;;;10.05;7.85;;;4.80;99.90;;;;;;5091571;28;20628;-62
2024/03/24 04:23:10;;;;;;;12.90;8.30;;;4.80;99.90;;;;;;5091465;28;20222;-62
2024/03/24 04:25:36;;;;;;;9.30;7.85;;;4.90;99.90;;;;;;5091425;28;20215;-61
2024/03/24 04:28:02;;;;;;;9.83;7.83;;;4.90;99.90;;;;;;5091736;28;20199;-61
2024/03/24 04:30:32;;;;;;;7.45;6.63;;;4.90;99.90;;;;;;5091424;28;20230;-61
2024/03/24 04:32:59;;;;;;;13.98;8.32;;;5.00;99.90;;;;;;5090989;28;20807;-61
2024/03/24 04:35:25;;;;;;;9.80;7.10;;;5.00;99.90;;;;;;5091923;28;20206;-62
2024/03/24 04:37:52;;;;;;;11.85;8.10;;;5.10;99.90;;;;;;5091821;28;20204;-62
2024/03/24 04:40:19;;;;;;;9.15;7.00;;;5.10;99.90;;;;;;5091297;28;20256;-62
2024/03/24 04:42:45;;;;;;;10.73;6.28;;;5.10;99.90;;;;;;5090885;28;20724;-61
2024/03/24 04:45:12;;;;;;;9.15;7.25;;;5.20;99.90;;;;;;5091303;28;20215;-61
2024/03/24 04:47:40;;;;;;;8.68;6.85;;;5.10;99.90;;;;;;5091420;28;20204;-61
2024/03/24 04:50:08;;;;;;;12.38;7.28;;;4.90;99.90;;;;;;5091456;28;20204;-62
2024/03/24 04:52:34;;;;;;;11.25;7.65;;;4.70;99.90;;;;;;5091787;28;20231;-61
2024/03/24 04:55:01;;;;;;;8.80;7.30;;;4.60;99.90;;;;;;5093516;28;20208;-61
2024/03/24 04:57:27;;;;;;;12.90;7.22;;;4.40;99.90;;;;;;5095499;28;20207;-61
2024/03/24 04:59:54;;;;;;;8.75;6.75;;;4.30;99.90;;;;;;5093085;28;20214;-62
2024/03/24 05:02:19;;;;;;;6.97;6.28;;;4.20;99.90;;;;;;5092090;28;20214;-61
2024/03/24 05:04:49;;;;;;;10.37;6.90;;;4.20;99.90;;;;;;5090627;28;20240;-61
2024/03/24 05:07:15;;;;;;;8.93;6.22;;;4.10;99.90;;;;;;5093447;28;20237;-61
2024/03/24 05:09:42;;;;;;;12.40;6.23;;;4.10;99.90;;;;;;5093088;28;20222;-62
2024/03/24 05:12:08;;;;;;;8.93;6.57;;;4.10;99.90;;;;;;5092413;28;20237;-61
2024/03/24 05:14:35;;;;;;;9.18;6.50;;;4.10;99.90;;;;;;5091000;28;20631;-60
2024/03/24 05:17:01;;;;;;;9.75;6.95;;;4.10;99.90;;;;;;5090680;28;20211;-61
2024/03/24 05:19:28;;;;;;;8.20;7.30;;;4.00;99.90;;;;;;5090446;28;20277;-62
2024/03/24 05:21:55;;;;;;;8.25;6.85;;;4.00;99.90;;;;;;5090876;28;20220;-62
2024/03/24 05:24:22;;;;;;;7.00;5.88;;;4.10;99.90;;;;;;5080066;28;20226;-61
2024/03/24 05:26:48;;;;;;;11.07;7.90;;;4.10;99.90;;;;;;5079654;28;20267;-61
2024/03/24 05:29:14;;;;;;;10.50;7.10;;;4.10;99.90;;;;;;5078776;28;20200;-61
2024/03/24 05:31:46;;;;;;;9.85;7.60;;;4.10;99.90;;;;;;5077566;28;20321;-62
2024/03/24 05:34:13;;;;;;;10.10;8.00;;;4.20;99.90;;;;;;5076574;28;20189;-61
2024/03/24 05:36:39;;;;;;;9.43;8.45;;;4.20;99.90;;;;;;5076416;28;20209;-61
2024/03/24 05:39:08;;;;;;;9.27;7.57;;;4.20;99.90;;;;;;5076558;28;20208;-61
2024/03/24 05:41:34;;;;;;;10.15;7.93;;;4.20;99.90;;;;;;5076651;28;20346;-61
2024/03/24 05:44:01;;;;;;;11.77;7.67;;;4.30;99.90;;;;;;5076209;28;20196;-61
2024/03/24 05:46:27;;;;;;;13.98;8.65;;;4.40;99.90;;;;;;5077507;28;20210;-61
2024/03/24 05:48:54;;;;;;;7.80;7.00;;;4.40;99.90;;;;;;5077942;28;20200;-61
2024/03/24 05:51:19;;;;;;;9.40;6.57;;;4.40;99.90;;;;;;5076358;28;20308;-63
2024/03/24 05:53:46;;;;;;;10.57;7.47;;;4.50;99.90;;;;;;5076099;28;20622;-61
2024/03/24 05:56:13;;;;;;;7.47;6.50;;;4.50;99.90;;;;;;5076332;28;20204;-61
2024/03/24 05:58:41;;;;;;;8.07;6.90;;;4.50;99.90;;;;;;5075854;28;20334;-61
2024/03/24 06:01:07;;;;;;;8.93;6.72;;;4.60;99.90;;;;;;5076892;28;20227;-61
2024/03/24 06:03:34;;;;;;;8.63;7.05;;;4.60;99.90;;;;;;5076124;28;20201;-62
2024/03/24 06:06:00;;;;;;;9.55;7.00;;;4.60;99.90;;;;;;5075984;28;20201;-61
2024/03/24 06:08:27;;;;;;;8.80;7.20;;;4.70;99.90;;;;;;5076516;28;20211;-60
2024/03/24 06:10:53;;;;;;;8.85;6.70;;;4.70;99.90;;;;;;5077233;28;20238;-62
2024/03/24 06:13:21;;;;;;;8.13;7.22;;;4.60;99.90;;;;;;5076827;28;20219;-62
2024/03/24 06:15:47;;;;;;;10.55;7.68;;;4.60;99.90;;;;;;5077215;28;20204;-61
2024/03/24 06:18:13;;;;;;;10.37;6.90;;;4.60;99.90;;;;;;5076080;28;20713;-62
2024/03/24 06:20:39;;;;;;;9.45;6.57;;;4.60;99.90;;;;;;5075716;28;20286;-63
2024/03/24 06:23:06;;;;;;;11.33;6.97;;;4.60;99.90;;;;;;5075631;28;20227;-62
2024/03/24 06:25:33;;;;;;;7.88;6.90;;;4.60;99.90;;;;;;5075678;28;20208;-61
2024/03/24 06:28:01;;;;;;;8.48;6.95;;;4.60;99.90;;;;;;5075661;28;20574;-62
2024/03/24 06:30:28;;;;;;;6.85;6.10;;;4.60;99.90;;;;;;5075791;28;20203;-62
2024/03/24 06:32:55;;;;;;;7.95;6.65;;;4.60;99.90;;;;;;5075668;28;20228;-62
2024/03/24 06:35:21;;;;;;;6.20;5.57;;;4.50;99.90;;;;;;5075050;28;20204;-61
2024/03/24 06:37:48;;;;;;;7.88;7.05;;;4.50;99.90;;;;;;5076107;28;20282;-62
2024/03/24 06:40:14;;;;;;;7.97;6.10;;;4.50;99.90;;;;;;5075752;28;20204;-62
2024/03/24 06:42:44;;;;;;;8.60;6.50;;;4.50;99.90;;;;;;5075441;28;20705;-62
2024/03/24 06:45:10;;;;;;;8.55;6.38;;;4.50;99.90;;;;;;5076111;28;20204;-62
2024/03/24 06:47:39;;;;;;;7.80;6.22;;;4.40;99.90;;;;;;5076007;28;20677;-62
2024/03/24 06:50:06;;;;;;;7.68;6.57;;;4.40;99.90;;;;;;5076434;28;20207;-63
2024/03/24 06:52:33;;;;;;;9.30;6.55;;;4.40;99.90;;;;;;5075001;28;20255;-61
2024/03/24 06:54:59;;;;;;;8.32;7.18;;;4.40;99.90;;;;;;5075144;28;20208;-62
2024/03/24 06:57:25;;;;;;;10.18;7.22;;;4.50;99.90;;;;;;5075334;28;20281;-62
2024/03/24 06:59:52;;;;;;;8.93;7.60;;;4.50;99.90;;;;;;5075246;28;20204;-62
2024/03/24 07:02:18;;;;;;;9.32;7.13;;;4.50;99.90;;;;;;5074998;28;20470;-62
2024/03/24 07:04:46;;;;;;;9.30;7.37;;;4.50;99.90;;;;;;5075018;28;20573;-62
2024/03/24 07:07:12;;;;;;;10.93;7.75;;;4.60;99.90;;;;;;5075116;28;20449;-61
2024/03/24 07:09:39;;;;;;;10.73;8.90;;;4.50;99.90;;;;;;5074768;28;20204;-61
2024/03/24 07:12:05;;;;;;;11.10;9.75;;;4.60;99.90;;;;;;5074269;28;20716;-62
2024/03/24 07:14:32;;;;;;;11.73;10.27;;;4.60;99.90;;;;;;5075038;28;20254;-62
2024/03/24 07:16:58;;;;;;;16.45;10.35;;;4.60;99.90;;;;;;5074796;28;20219;-62
2024/03/24 07:19:24;;;;;;;13.27;10.17;;;4.70;99.90;;;;;;5076982;28;20196;-62
2024/03/24 07:21:51;;;;;;;13.70;8.93;;;4.70;99.90;;;;;;5080998;28;20242;-62
2024/03/24 07:24:18;;;;;;;13.27;9.98;;;4.80;99.90;;;;;;5081561;28;20203;-62
2024/03/24 07:26:44;;;;;;;14.27;9.35;;;4.80;99.90;;;;;;5078315;28;20235;-61
2024/03/24 07:29:11;;;;;;;11.80;9.13;;;4.80;99.90;;;;;;5076422;28;20198;-61
2024/03/24 07:31:36;;;;;;;13.05;10.40;;;4.80;99.90;;;;;;5078122;28;20231;-61
2024/03/24 07:34:03;;;;;;;11.87;9.80;;;4.80;99.90;;;;;;5078571;28;20214;-62
2024/03/24 07:36:29;;;;;;;11.32;9.05;;;4.80;99.90;;;;;;5079051;28;20201;-66
2024/03/24 07:38:57;;;;;;;11.17;8.60;;;4.90;99.90;;;;;;5078732;28;20248;-62
2024/03/24 07:41:23;;;;;;;12.73;9.70;;;4.90;99.90;;;;;;5076258;28;20710;-62
2024/03/24 07:43:50;;;;;;;13.53;9.50;;;5.00;99.90;;;;;;5075569;28;20206;-61
2024/03/24 07:46:15;;;;;;;12.80;10.20;;;5.00;99.90;;;;;;5074878;28;20203;-62
2024/03/24 07:48:42;;;;;;;9.67;7.70;;;5.00;99.90;;;;;;5074807;28;20570;-61
2024/03/24 07:51:08;;;;;;;10.48;7.85;;;5.10;99.90;;;;;;5074619;28;20228;-62
2024/03/24 07:53:35;;;;;;;12.40;9.57;;;5.20;99.90;;;;;;5074147;28;20231;-61
2024/03/24 07:56:02;;;;;;;11.52;9.48;;;5.20;99.90;;;;;;5074698;28;20199;-63
2024/03/24 07:58:29;;;;;;;7.88;6.88;;;5.30;99.90;;;;;;5074068;28;20666;-61
2024/03/24 08:00:54;;;;;;;8.68;7.40;;;5.30;99.90;;;;;;5073979;28;20196;-62
2024/03/24 08:03:21;;;;;;;8.60;6.53;;;5.40;99.90;;;;;;5074080;28;20200;-62
2024/03/24 08:05:47;;;;;;;7.00;5.93;;;5.40;99.90;;;;;;5074664;28;20677;-60
2024/03/24 08:08:13;;;;;;;6.43;5.73;;;5.40;99.90;;;;;;5074630;28;20200;-62
2024/03/24 08:10:40;;;;;;;6.93;5.53;;;5.40;99.90;;;;;;5075960;28;20212;-64
2024/03/24 08:13:08;;;;;;;6.30;5.00;;;5.40;99.90;;;;;;5075228;28;20247;-62
2024/03/24 08:15:34;;;;;;;6.60;5.60;;;5.30;99.90;;;;;;5076813;28;20667;-62
2024/03/24 08:18:01;;;;;;;4.60;4.20;;;5.30;99.90;;;;;;5075244;28;20299;-62
2024/03/24 08:20:27;;;;;;;6.30;5.25;;;5.20;99.90;;;;;;5074177;28;20203;-62
2024/03/24 08:22:54;;;;;;;4.90;3.97;;;5.20;99.90;;;;;;5074320;28;20220;-62
2024/03/24 08:25:20;;;;;;;5.97;4.85;;;5.30;99.90;;;;;;5076474;28;20207;-63
2024/03/24 08:27:47;;;;;;;5.60;4.60;;;5.20;99.90;;;;;;5075068;28;20697;-61
2024/03/24 08:30:14;;;;;;;5.95;5.20;;;5.20;99.90;;;;;;5075307;28;20448;-61
2024/03/24 08:32:41;;;;;;;5.22;4.38;;;5.10;99.90;;;;;;5074824;28;20670;-62
2024/03/24 08:35:07;;;;;;;5.35;4.85;;;5.10;99.90;;;;;;5075129;28;20211;-62
2024/03/24 08:37:34;;;;;;;5.80;5.18;;;5.10;99.90;;;;;;5074076;28;20615;-62
2024/03/24 08:40:00;;;;;;;6.15;5.55;;;5.10;99.90;;;;;;5074648;28;20207;-61
2024/03/24 08:42:26;;;;;;;6.80;5.57;;;5.10;99.90;;;;;;5074818;28;20215;-61
2024/03/24 08:44:52;;;;;;;6.93;5.40;;;5.20;99.90;;;;;;5074728;28;20212;-62
2024/03/24 08:47:20;;;;;;;8.20;4.40;;;5.20;99.90;;;;;;5074877;28;20745;-62
2024/03/24 08:49:46;;;;;;;5.50;5.00;;;5.30;99.90;;;;;;5076389;28;20453;-62
2024/03/24 08:52:13;;;;;;;5.00;4.50;;;5.30;99.90;;;;;;5076236;28;20227;-62
2024/03/24 08:54:38;;;;;;;6.00;5.40;;;5.30;99.90;;;;;;5074232;28;20220;-60
2024/03/24 08:57:05;;;;;;;5.00;3.90;;;5.50;99.90;;;;;;5074052;28;20663;-61
2024/03/24 08:59:31;;;;;;;5.40;4.60;;;5.50;99.90;;;;;;5077524;28;20682;-62
2024/03/24 09:01:58;;;;;;;5.20;4.67;;;5.60;99.90;;;;;;5077861;28;20224;-62
2024/03/24 09:04:25;;;;;;;5.10;4.60;;;5.60;99.90;;;;;;5078023;28;20201;-61
2024/03/24 09:06:52;;;;;;;5.97;5.05;;;5.70;99.90;;;;;;5077963;28;20626;-62
2024/03/24 09:09:18;;;;;;;4.45;4.05;;;5.90;99.90;;;;;;5083502;28;20205;-62
2024/03/24 09:11:45;;;;;;;4.67;3.60;;;6.00;99.90;;;;;;5083165;28;20254;-62
2024/03/24 09:14:10;;;;;;;4.20;3.80;;;6.10;99.90;;;;;;5083267;28;20228;-62
2024/03/24 09:16:37;;;;;;;4.77;3.90;;;6.30;99.90;;;;;;5084067;28;20268;-63
2024/03/24 09:19:03;;;;;;;5.40;4.90;;;6.40;99.90;;;;;;5085542;28;20201;-62
2024/03/24 09:21:31;;;;;;;5.80;3.00;;;6.50;99.90;;;;;;5086106;28;20347;-62
2024/03/24 09:23:57;;;;;;;3.65;3.10;;;6.60;99.90;;;;;;5085833;28;20444;-61
2024/03/24 09:26:25;;;;;;;4.30;3.17;;;6.70;99.90;;;;;;5085682;28;20192;-61
2024/03/24 09:28:51;;;;;;;3.05;2.53;;;6.90;99.90;;;;;;5086317;28;20251;-62
2024/03/24 09:31:17;;;;;;;5.70;2.83;;;7.00;99.90;;;;;;5089822;28;20221;-63
2024/03/24 09:33:43;;;;;;;2.67;2.47;;;7.00;99.90;;;;;;5086774;28;20217;-61
2024/03/24 09:36:11;;;;;;;4.30;2.60;;;7.00;99.90;;;;;;5082502;28;20203;-60
2024/03/24 09:38:39;;;;;;;2.50;2.28;;;7.00;99.90;;;;;;5082489;28;20237;-61
2024/03/24 09:41:05;;;;;;;3.42;1.98;;;7.00;99.90;;;;;;5083670;28;20224;-62
2024/03/24 09:43:32;;;;;;;4.60;2.15;;;7.10;99.90;;;;;;5083522;28;20205;-62
2024/03/24 09:45:59;;;;;;;3.72;2.72;;;7.10;99.90;;;;;;5082025;28;20265;-62
2024/03/24 09:48:27;;;;;;;5.45;2.40;;;7.20;99.90;;;;;;5085929;28;20245;-62
2024/03/24 09:50:57;;;;;;;4.10;2.40;;;7.20;99.90;;;;;;5084114;28;20244;-62
2024/03/24 09:53:22;;;;;;;2.75;2.20;;;7.30;99.90;;;;;;5083382;28;20259;-62
2024/03/24 09:55:51;;;;;;;5.77;2.40;;;7.50;99.90;;;;;;5084446;28;20197;-61
2024/03/24 09:58:18;;;;;;;4.05;2.28;;;7.80;99.90;;;;;;5084912;28;20205;-62
2024/03/24 10:00:45;;;;;;;2.97;2.10;;;7.90;99.90;;;;;;5087358;28;20201;-62
2024/03/24 10:03:11;;;;;;;3.30;2.20;;;8.00;99.90;;;;;;5087661;28;20198;-62
2024/03/24 10:05:37;;;;;;;3.60;2.30;;;8.10;99.90;;;;;;5089941;28;20213;-61
2024/03/24 10:08:04;;;;;;;5.10;2.45;;;8.30;99.90;;;;;;5084602;28;20205;-61
2024/03/24 10:10:32;;;;;;;3.83;1.92;;;8.50;99.90;;;;;;5080980;28;20250;-60
2024/03/24 10:13:00;;;;;;;4.80;2.40;;;8.60;99.90;;;;;;5080537;28;20261;-61
2024/03/24 10:15:27;;;;;;;4.50;1.85;;;8.70;99.90;;;;;;5078832;28;20290;-62
2024/03/24 10:18:03;;;;;;;3.33;2.30;;;8.70;99.90;;;;;;5078138;28;20253;-62
2024/03/24 10:20:30;;;;;;;3.05;1.70;;;8.70;99.90;;;;;;5077074;28;20194;-62
2024/03/24 10:22:57;;;;;;;2.75;2.20;;;8.60;99.90;;;;;;5077875;28;20230;-61
2024/03/24 10:25:25;;;;;;;4.75;2.10;;;8.60;99.90;;;;;;5078012;28;20210;-62
2024/03/24 10:27:52;;;;;;;3.58;2.10;;;8.60;99.90;;;;;;5076644;28;20628;-61
2024/03/24 10:30:20;;;;;;;4.20;1.60;;;8.70;99.90;;;;;;5076356;28;20202;-63
2024/03/24 10:32:47;;;;;;;5.45;2.53;;;8.70;99.90;;;;;;5076948;28;20534;-63
2024/03/24 10:35:14;;;;;;;2.90;2.30;;;8.70;99.90;;;;;;5076781;28;20201;-62
2024/03/24 10:37:41;;;;;;;3.45;2.80;;;8.70;99.90;;;;;;5076648;28;20439;-63
2024/03/24 10:40:12;;;;;;;2.50;1.77;;;8.70;99.90;;;;;;5076538;28;20213;-62
2024/03/24 10:42:45;;;;;;;4.18;1.90;;;8.80;99.90;;;;;;5075892;28;20220;-62
2024/03/24 10:45:14;;;;;;;3.65;2.40;;;8.80;99.90;;;;;;5076266;28;20240;-62
2024/03/24 10:47:43;;;;;;;5.55;2.28;;;8.80;99.90;;;;;;5076691;28;20200;-61
2024/03/24 10:50:13;;;;;;;6.97;1.95;;;8.70;99.90;;;;;;5076930;28;20208;-62
2024/03/24 10:52:42;;;;;;;3.30;1.70;;;8.60;99.90;;;;;;5077192;28;20280;-62
2024/03/24 10:55:09;;;;;;;5.90;1.75;;;8.60;99.90;;;;;;5076500;28;20202;-62
2024/03/24 10:57:37;;;;;;;5.38;2.05;;;8.70;99.90;;;;;;5076131;28;20229;-62
2024/03/24 11:00:03;;;;;;;2.60;1.57;;;8.90;99.90;;;;;;5075577;28;20234;-61
2024/03/24 11:02:31;;;;;;;7.30;1.42;;;9.10;99.90;;;;;;5074982;28;20474;-62
2024/03/24 11:05:00;;;;;;;3.67;1.65;;;9.20;99.90;;;;;;5075335;28;20212;-63
2024/03/24 11:07:29;;;;;;;4.15;2.15;;;9.30;99.90;;;;;;5075677;28;20550;-61
2024/03/24 11:09:58;;;;;;;5.63;2.63;;;9.40;99.90;;;;;;5075289;28;20210;-62
2024/03/24 11:12:25;;;;;;;3.90;1.70;;;9.50;99.90;;;;;;5076336;28;20827;-64
2024/03/24 11:14:51;;;;;;;4.07;2.00;;;9.60;99.90;;;;;;5075420;28;20447;-63
2024/03/24 11:17:19;;;;;;;3.50;1.77;;;9.60;98.70;;;;;;5075678;28;20445;-62
2024/03/24 11:19:47;;;;;;;3.67;2.00;;;9.60;97.50;;;;;;5075858;28;20459;-62
2024/03/24 11:22:22;;;;;;;5.17;2.10;;;9.60;97.00;;;;;;5074482;28;20984;-61
2024/03/24 11:24:48;;;;;;;3.50;1.63;;;9.70;97.80;;;;;;5076163;28;20418;-61
2024/03/24 11:27:27;;;;;;;5.53;2.20;;;9.80;97.50;;;;;;5076157;28;20793;-62
2024/03/24 11:29:55;;;;;;;4.17;1.80;;;9.90;97.00;;;;;;5076560;28;20181;-63
2024/03/24 11:32:23;;;;;;;2.20;1.50;;;10.00;95.90;;;;;;5078662;28;20470;-62
2024/03/24 11:34:51;;;;;;;2.50;1.80;;;10.10;95.30;;;;;;5076038;28;20532;-62
2024/03/24 11:37:20;;;;;;;6.70;2.53;;;10.30;93.50;;;;;;5075779;28;20438;-62
2024/03/24 11:39:47;;;;;;;7.20;1.90;;;10.40;92.00;;;;;;5074717;28;20929;-62
2024/03/24 11:42:14;;;;;;;5.67;2.40;;;10.40;91.90;;;;;;5075210;28;20509;-61
2024/03/24 11:44:42;;;;;;;4.03;2.17;;;10.40;91.60;;;;;;5076014;28;20527;-63
2024/03/24 11:47:09;;;;;;;3.90;1.63;;;10.20;90.90;;;;;;5074966;28;20933;-62
2024/03/24 11:49:45;;;;;;;5.33;2.23;;;10.00;90.30;;;;;;5075803;28;20813;-62
2024/03/24 11:52:16;;;;;;;2.63;1.70;;;9.80;91.60;;;;;;5074933;28;20834;-63
2024/03/24 11:54:45;;;;;;;4.17;2.33;;;9.70;92.20;;;;;;5074490;28;20460;-63
2024/03/24 11:57:12;;;;;;;3.83;1.80;;;9.70;93.00;;;;;;5074921;28;20470;-63
2024/03/24 11:59:38;;;;;;;5.03;2.33;;;9.60;93.20;;;;;;5076297;28;20489;-62
2024/03/24 12:02:05;;;;;;;3.80;2.47;;;9.60;93.30;;;;;;5077131;28;20901;-63
2024/03/24 12:04:30;;;;;;;4.53;2.23;;;9.60;93.70;;;;;;5076258;28;20435;-61
2024/03/24 12:06:57;;;;;;;2.43;2.23;;;9.70;93.60;;;;;;5076896;28;20540;-62
2024/03/24 12:09:23;;;;;;;6.10;1.97;;;9.60;94.10;;;;;;5076912;28;20201;-62
2024/03/24 12:11:54;;;;;;;2.67;2.23;;;9.40;95.10;;;;;;5076925;28;20469;-62
2024/03/24 12:14:20;;;;;;;6.27;2.40;;;9.10;95.90;;;;;;5076585;28;20731;-63
2024/03/24 12:16:47;;;;;;;5.77;2.70;;;8.90;98.20;;;;;;5075859;28;20456;-62
2024/03/24 12:19:14;;;;;;;2.40;2.20;;;8.70;99.90;;;;;;5077913;28;20442;-62
2024/03/24 12:21:40;;;;;;;3.25;2.00;;;8.50;99.90;;;;;;5083641;28;20215;-63
2024/03/24 12:24:07;;;;;;;4.25;2.33;;;8.30;99.90;;;;;;5081063;28;20206;-62
2024/03/24 12:26:33;;;;;;;3.42;2.10;;;8.00;99.90;;;;;;5078785;28;20484;-62
2024/03/24 12:29:00;;;;;;;7.40;2.83;;;7.80;99.90;;;;;;5082051;28;20197;-62
2024/03/24 12:31:28;;;;;;;3.70;2.80;;;7.70;99.90;;;;;;5079536;28;20225;-62
2024/03/24 12:33:54;;;;;;;4.80;2.75;;;7.60;99.90;;;;;;5079234;28;20220;-61
2024/03/24 12:36:21;;;;;;;5.70;2.00;;;7.50;99.90;;;;;;5079781;28;20742;-63
2024/03/24 12:38:49;;;;;;;7.63;2.53;;;7.50;99.90;;;;;;5080130;28;20204;-61
2024/03/24 12:41:21;;;;;;;2.50;1.80;;;7.50;99.90;;;;;;5080690;28;20221;-62
2024/03/24 12:43:51;;;;;;;4.88;1.77;;;7.50;99.90;;;;;;5080707;28;20189;-62
2024/03/24 12:46:25;;;;;;;4.75;1.88;;;7.50;99.90;;;;;;5081960;28;20239;-62
2024/03/24 12:48:51;;;;;;;3.50;2.20;;;7.60;99.90;;;;;;5081319;28;20276;-61
2024/03/24 12:51:18;;;;;;;2.17;1.67;;;7.70;99.90;;;;;;5080746;28;20652;-64